sensor_id;sensor_type;location;lat;lon;timestamp;P1;durP1;ratioP1;P2;durP2;ratioP2
40649;SDS011;26342;42.826;23.992;2022-08-05T00:01:32;2.72;;;1.40;;
40649;SDS011;26342;42.826;23.992;2022-08-05T00:03:57;1.77;;;1.40;;
40649;SDS011;26342;42.826;23.992;2022-08-05T00:06:23;1.85;;;1.20;;
40649;SDS011;26342;42.826;23.992;2022-08-05T00:08:49;1.98;;;1.15;;
40649;SDS011;26342;42.826;23.992;2022-08-05T00:11:14;1.40;;;1.30;;
40649;SDS011;26342;42.826;23.992;2022-08-05T00:13:41;3.70;;;1.33;;
40649;SDS011;26342;42.826;23.992;2022-08-05T00:16:08;2.08;;;1.60;;
40649;SDS011;26342;42.826;23.992;2022-08-05T00:18:35;1.45;;;1.17;;
40649;SDS011;26342;42.826;23.992;2022-08-05T00:21:01;2.33;;;1.50;;
40649;SDS011;26342;42.826;23.992;2022-08-05T00:23:27;2.10;;;1.55;;
40649;SDS011;26342;42.826;23.992;2022-08-05T00:25:52;2.15;;;1.25;;
40649;SDS011;26342;42.826;23.992;2022-08-05T00:28:17;2.25;;;1.25;;
40649;SDS011;26342;42.826;23.992;2022-08-05T00:30:43;1.40;;;1.10;;
40649;SDS011;26342;42.826;23.992;2022-08-05T00:33:08;2.20;;;1.60;;
40649;SDS011;26342;42.826;23.992;2022-08-05T00:35:34;2.20;;;1.50;;
40649;SDS011;26342;42.826;23.992;2022-08-05T00:37:59;1.48;;;0.93;;
40649;SDS011;26342;42.826;23.992;2022-08-05T00:40:25;1.73;;;1.13;;
40649;SDS011;26342;42.826;23.992;2022-08-05T00:42:51;1.73;;;1.40;;
40649;SDS011;26342;42.826;23.992;2022-08-05T00:45:18;1.98;;;1.42;;
40649;SDS011;26342;42.826;23.992;2022-08-05T00:47:43;1.77;;;1.30;;
40649;SDS011;26342;42.826;23.992;2022-08-05T00:50:09;1.98;;;1.30;;
40649;SDS011;26342;42.826;23.992;2022-08-05T00:52:35;1.88;;;1.30;;
40649;SDS011;26342;42.826;23.992;2022-08-05T00:55:00;2.03;;;1.40;;
40649;SDS011;26342;42.826;23.992;2022-08-05T00:57:26;1.73;;;1.30;;
40649;SDS011;26342;42.826;23.992;2022-08-05T00:59:51;1.65;;;1.23;;
40649;SDS011;26342;42.826;23.992;2022-08-05T01:02:17;1.52;;;1.20;;
40649;SDS011;26342;42.826;23.992;2022-08-05T01:04:42;2.13;;;1.35;;
40649;SDS011;26342;42.826;23.992;2022-08-05T01:07:08;1.88;;;1.40;;
40649;SDS011;26342;42.826;23.992;2022-08-05T01:09:33;2.15;;;1.70;;
40649;SDS011;26342;42.826;23.992;2022-08-05T01:12:01;2.25;;;1.60;;
40649;SDS011;26342;42.826;23.992;2022-08-05T01:14:31;2.40;;;1.58;;
40649;SDS011;26342;42.826;23.992;2022-08-05T01:17:05;2.72;;;1.63;;
40649;SDS011;26342;42.826;23.992;2022-08-05T01:19:42;3.42;;;1.88;;
40649;SDS011;26342;42.826;23.992;2022-08-05T01:25:07;2.22;;;1.55;;
40649;SDS011;26342;42.826;23.992;2022-08-05T01:30:41;2.00;;;1.52;;
40649;SDS011;26342;42.826;23.992;2022-08-05T01:33:11;2.38;;;1.58;;
40649;SDS011;26342;42.826;23.992;2022-08-05T01:35:40;2.50;;;1.70;;
40649;SDS011;26342;42.826;23.992;2022-08-05T01:38:09;2.50;;;1.65;;
40649;SDS011;26342;42.826;23.992;2022-08-05T01:40:36;2.63;;;1.60;;
40649;SDS011;26342;42.826;23.992;2022-08-05T01:43:03;2.13;;;1.40;;
40649;SDS011;26342;42.826;23.992;2022-08-05T01:45:31;2.00;;;1.27;;
40649;SDS011;26342;42.826;23.992;2022-08-05T01:47:58;1.80;;;1.48;;
40649;SDS011;26342;42.826;23.992;2022-08-05T01:50:26;1.95;;;1.48;;
40649;SDS011;26342;42.826;23.992;2022-08-05T01:52:55;2.75;;;1.80;;
40649;SDS011;26342;42.826;23.992;2022-08-05T01:55:25;2.10;;;1.70;;
40649;SDS011;26342;42.826;23.992;2022-08-05T01:57:55;1.60;;;1.38;;
40649;SDS011;26342;42.826;23.992;2022-08-05T02:00:21;2.10;;;1.63;;
40649;SDS011;26342;42.826;23.992;2022-08-05T02:02:52;1.95;;;1.40;;
40649;SDS011;26342;42.826;23.992;2022-08-05T02:05:22;2.50;;;1.67;;
40649;SDS011;26342;42.826;23.992;2022-08-05T02:07:52;2.67;;;1.73;;
40649;SDS011;26342;42.826;23.992;2022-08-05T02:10:18;1.55;;;1.17;;
40649;SDS011;26342;42.826;23.992;2022-08-05T02:20:31;2.10;;;1.40;;
40649;SDS011;26342;42.826;23.992;2022-08-05T02:23:02;2.85;;;1.80;;
40649;SDS011;26342;42.826;23.992;2022-08-05T02:25:31;2.20;;;1.50;;
40649;SDS011;26342;42.826;23.992;2022-08-05T02:27:59;2.15;;;1.55;;
40649;SDS011;26342;42.826;23.992;2022-08-05T02:30:31;2.70;;;1.50;;
40649;SDS011;26342;42.826;23.992;2022-08-05T02:33:02;2.17;;;1.42;;
40649;SDS011;26342;42.826;23.992;2022-08-05T02:35:29;4.22;;;1.65;;
40649;SDS011;26342;42.826;23.992;2022-08-05T02:37:59;2.50;;;1.50;;
40649;SDS011;26342;42.826;23.992;2022-08-05T02:40:26;2.28;;;1.63;;
40649;SDS011;26342;42.826;23.992;2022-08-05T02:42:51;1.73;;;1.35;;
40649;SDS011;26342;42.826;23.992;2022-08-05T02:45:20;2.38;;;1.45;;
40649;SDS011;26342;42.826;23.992;2022-08-05T02:47:47;2.67;;;1.83;;
40649;SDS011;26342;42.826;23.992;2022-08-05T02:50:14;3.03;;;1.77;;
40649;SDS011;26342;42.826;23.992;2022-08-05T02:52:40;1.77;;;1.42;;
40649;SDS011;26342;42.826;23.992;2022-08-05T02:55:09;2.75;;;1.83;;
40649;SDS011;26342;42.826;23.992;2022-08-05T02:57:37;2.72;;;1.52;;
40649;SDS011;26342;42.826;23.992;2022-08-05T03:00:04;2.63;;;1.50;;
40649;SDS011;26342;42.826;23.992;2022-08-05T03:02:33;2.20;;;1.52;;
40649;SDS011;26342;42.826;23.992;2022-08-05T03:05:02;1.63;;;1.23;;
40649;SDS011;26342;42.826;23.992;2022-08-05T03:07:28;2.40;;;1.40;;
40649;SDS011;26342;42.826;23.992;2022-08-05T03:09:55;2.25;;;1.48;;
40649;SDS011;26342;42.826;23.992;2022-08-05T03:12:34;4.72;;;1.85;;
40649;SDS011;26342;42.826;23.992;2022-08-05T03:15:02;2.42;;;1.63;;
40649;SDS011;26342;42.826;23.992;2022-08-05T03:17:30;2.33;;;1.65;;
40649;SDS011;26342;42.826;23.992;2022-08-05T03:19:55;2.58;;;1.60;;
40649;SDS011;26342;42.826;23.992;2022-08-05T03:22:21;2.45;;;1.60;;
40649;SDS011;26342;42.826;23.992;2022-08-05T03:24:47;2.08;;;1.33;;
40649;SDS011;26342;42.826;23.992;2022-08-05T03:27:14;2.50;;;1.65;;
40649;SDS011;26342;42.826;23.992;2022-08-05T03:29:39;2.53;;;1.75;;
40649;SDS011;26342;42.826;23.992;2022-08-05T03:32:06;2.40;;;1.67;;
40649;SDS011;26342;42.826;23.992;2022-08-05T03:34:32;2.70;;;1.60;;
40649;SDS011;26342;42.826;23.992;2022-08-05T03:36:59;2.40;;;1.73;;
40649;SDS011;26342;42.826;23.992;2022-08-05T03:39:25;2.55;;;1.67;;
40649;SDS011;26342;42.826;23.992;2022-08-05T03:41:51;2.20;;;1.70;;
40649;SDS011;26342;42.826;23.992;2022-08-05T03:44:16;2.20;;;1.58;;
40649;SDS011;26342;42.826;23.992;2022-08-05T03:46:41;2.60;;;1.80;;
40649;SDS011;26342;42.826;23.992;2022-08-05T03:49:07;2.13;;;1.45;;
40649;SDS011;26342;42.826;23.992;2022-08-05T03:51:37;2.15;;;1.58;;
40649;SDS011;26342;42.826;23.992;2022-08-05T03:56:39;2.95;;;1.58;;
40649;SDS011;26342;42.826;23.992;2022-08-05T03:59:50;2.20;;;1.58;;
40649;SDS011;26342;42.826;23.992;2022-08-05T04:01:58;3.28;;;2.08;;
40649;SDS011;26342;42.826;23.992;2022-08-05T04:04:25;2.63;;;1.70;;
40649;SDS011;26342;42.826;23.992;2022-08-05T04:06:53;2.97;;;1.80;;
40649;SDS011;26342;42.826;23.992;2022-08-05T04:09:19;2.03;;;1.70;;
40649;SDS011;26342;42.826;23.992;2022-08-05T04:11:45;2.60;;;1.75;;
40649;SDS011;26342;42.826;23.992;2022-08-05T04:14:11;2.88;;;1.80;;
40649;SDS011;26342;42.826;23.992;2022-08-05T04:16:36;2.53;;;1.77;;
40649;SDS011;26342;42.826;23.992;2022-08-05T04:19:02;2.67;;;1.77;;
40649;SDS011;26342;42.826;23.992;2022-08-05T04:21:28;3.17;;;2.10;;
40649;SDS011;26342;42.826;23.992;2022-08-05T04:23:54;2.75;;;1.70;;
40649;SDS011;26342;42.826;23.992;2022-08-05T04:26:22;2.25;;;1.60;;
40649;SDS011;26342;42.826;23.992;2022-08-05T04:28:47;2.88;;;1.63;;
40649;SDS011;26342;42.826;23.992;2022-08-05T04:31:13;2.22;;;1.58;;
40649;SDS011;26342;42.826;23.992;2022-08-05T04:33:38;2.42;;;1.65;;
40649;SDS011;26342;42.826;23.992;2022-08-05T04:36:03;2.88;;;1.90;;
40649;SDS011;26342;42.826;23.992;2022-08-05T04:38:29;3.13;;;1.58;;
40649;SDS011;26342;42.826;23.992;2022-08-05T04:40:54;5.93;;;2.40;;
40649;SDS011;26342;42.826;23.992;2022-08-05T04:43:20;7.80;;;6.75;;
40649;SDS011;26342;42.826;23.992;2022-08-05T04:45:45;4.93;;;3.88;;
40649;SDS011;26342;42.826;23.992;2022-08-05T04:48:14;5.20;;;3.28;;
40649;SDS011;26342;42.826;23.992;2022-08-05T04:50:46;6.10;;;3.80;;
40649;SDS011;26342;42.826;23.992;2022-08-05T04:53:13;6.43;;;4.30;;
40649;SDS011;26342;42.826;23.992;2022-08-05T04:55:40;5.82;;;4.63;;
40649;SDS011;26342;42.826;23.992;2022-08-05T04:58:07;4.63;;;3.45;;
40649;SDS011;26342;42.826;23.992;2022-08-05T05:00:34;4.82;;;3.17;;
40649;SDS011;26342;42.826;23.992;2022-08-05T05:03:01;4.35;;;3.15;;
40649;SDS011;26342;42.826;23.992;2022-08-05T05:05:27;6.20;;;3.65;;
40649;SDS011;26342;42.826;23.992;2022-08-05T05:07:55;5.95;;;4.05;;
40649;SDS011;26342;42.826;23.992;2022-08-05T05:10:31;6.18;;;3.58;;
40649;SDS011;26342;42.826;23.992;2022-08-05T05:12:57;5.82;;;3.17;;
40649;SDS011;26342;42.826;23.992;2022-08-05T05:15:24;4.72;;;3.10;;
40649;SDS011;26342;42.826;23.992;2022-08-05T05:17:50;4.50;;;2.50;;
40649;SDS011;26342;42.826;23.992;2022-08-05T05:20:15;5.25;;;2.85;;
40649;SDS011;26342;42.826;23.992;2022-08-05T05:22:41;3.35;;;2.35;;
40649;SDS011;26342;42.826;23.992;2022-08-05T05:25:06;3.45;;;2.67;;
40649;SDS011;26342;42.826;23.992;2022-08-05T05:27:34;3.13;;;2.45;;
40649;SDS011;26342;42.826;23.992;2022-08-05T05:30:00;2.88;;;2.53;;
40649;SDS011;26342;42.826;23.992;2022-08-05T05:32:27;3.28;;;2.38;;
40649;SDS011;26342;42.826;23.992;2022-08-05T05:34:52;3.08;;;1.98;;
40649;SDS011;26342;42.826;23.992;2022-08-05T05:37:18;3.63;;;2.58;;
40649;SDS011;26342;42.826;23.992;2022-08-05T05:39:43;2.72;;;2.03;;
40649;SDS011;26342;42.826;23.992;2022-08-05T05:42:08;2.83;;;2.15;;
40649;SDS011;26342;42.826;23.992;2022-08-05T05:44:34;3.05;;;2.25;;
40649;SDS011;26342;42.826;23.992;2022-08-05T05:46:59;3.17;;;2.00;;
40649;SDS011;26342;42.826;23.992;2022-08-05T05:49:25;3.83;;;2.28;;
40649;SDS011;26342;42.826;23.992;2022-08-05T05:51:51;3.33;;;2.25;;
40649;SDS011;26342;42.826;23.992;2022-08-05T05:54:17;2.50;;;1.83;;
40649;SDS011;26342;42.826;23.992;2022-08-05T05:56:43;2.55;;;1.85;;
40649;SDS011;26342;42.826;23.992;2022-08-05T05:59:08;4.57;;;2.03;;
40649;SDS011;26342;42.826;23.992;2022-08-05T06:01:34;2.22;;;1.73;;
40649;SDS011;26342;42.826;23.992;2022-08-05T06:04:04;2.80;;;1.88;;
40649;SDS011;26342;42.826;23.992;2022-08-05T06:06:34;2.60;;;1.80;;
40649;SDS011;26342;42.826;23.992;2022-08-05T06:09:00;2.80;;;1.95;;
40649;SDS011;26342;42.826;23.992;2022-08-05T06:11:26;3.05;;;2.22;;
40649;SDS011;26342;42.826;23.992;2022-08-05T06:13:51;2.80;;;2.20;;
40649;SDS011;26342;42.826;23.992;2022-08-05T06:16:17;2.40;;;1.65;;
40649;SDS011;26342;42.826;23.992;2022-08-05T06:18:42;2.35;;;1.77;;
40649;SDS011;26342;42.826;23.992;2022-08-05T06:21:07;2.15;;;1.75;;
40649;SDS011;26342;42.826;23.992;2022-08-05T06:23:33;1.88;;;1.60;;
40649;SDS011;26342;42.826;23.992;2022-08-05T06:25:58;2.05;;;1.60;;
40649;SDS011;26342;42.826;23.992;2022-08-05T06:28:23;1.30;;;1.17;;
40649;SDS011;26342;42.826;23.992;2022-08-05T06:30:49;1.80;;;1.30;;
40649;SDS011;26342;42.826;23.992;2022-08-05T06:33:14;1.45;;;1.13;;
40649;SDS011;26342;42.826;23.992;2022-08-05T06:35:40;2.00;;;1.27;;
40649;SDS011;26342;42.826;23.992;2022-08-05T06:38:05;1.40;;;1.08;;
40649;SDS011;26342;42.826;23.992;2022-08-05T06:40:31;1.42;;;1.20;;
40649;SDS011;26342;42.826;23.992;2022-08-05T06:42:56;1.52;;;1.08;;
40649;SDS011;26342;42.826;23.992;2022-08-05T06:45:22;1.80;;;1.20;;
40649;SDS011;26342;42.826;23.992;2022-08-05T06:47:47;1.65;;;1.13;;
40649;SDS011;26342;42.826;23.992;2022-08-05T06:50:12;1.98;;;1.52;;
40649;SDS011;26342;42.826;23.992;2022-08-05T06:52:38;1.50;;;1.20;;
40649;SDS011;26342;42.826;23.992;2022-08-05T06:55:04;2.33;;;1.40;;
40649;SDS011;26342;42.826;23.992;2022-08-05T06:57:30;1.38;;;1.13;;
40649;SDS011;26342;42.826;23.992;2022-08-05T06:59:55;1.50;;;1.13;;
40649;SDS011;26342;42.826;23.992;2022-08-05T07:02:21;1.80;;;1.42;;
40649;SDS011;26342;42.826;23.992;2022-08-05T07:04:46;1.65;;;1.13;;
40649;SDS011;26342;42.826;23.992;2022-08-05T07:07:12;1.77;;;1.20;;
40649;SDS011;26342;42.826;23.992;2022-08-05T07:09:37;1.25;;;1.10;;
40649;SDS011;26342;42.826;23.992;2022-08-05T07:12:03;1.88;;;1.10;;
40649;SDS011;26342;42.826;23.992;2022-08-05T07:14:28;1.65;;;1.35;;
40649;SDS011;26342;42.826;23.992;2022-08-05T07:17:12;1.40;;;1.30;;
40649;SDS011;26342;42.826;23.992;2022-08-05T07:19:37;1.63;;;1.30;;
40649;SDS011;26342;42.826;23.992;2022-08-05T07:22:03;1.17;;;0.95;;
40649;SDS011;26342;42.826;23.992;2022-08-05T07:24:29;1.10;;;1.00;;
40649;SDS011;26342;42.826;23.992;2022-08-05T07:26:54;1.40;;;1.10;;
40649;SDS011;26342;42.826;23.992;2022-08-05T07:29:20;1.60;;;1.30;;
40649;SDS011;26342;42.826;23.992;2022-08-05T07:31:45;1.30;;;1.08;;
40649;SDS011;26342;42.826;23.992;2022-08-05T07:34:11;1.10;;;1.00;;
40649;SDS011;26342;42.826;23.992;2022-08-05T07:36:36;1.98;;;1.20;;
40649;SDS011;26342;42.826;23.992;2022-08-05T07:39:03;1.40;;;1.30;;
40649;SDS011;26342;42.826;23.992;2022-08-05T07:41:30;1.17;;;1.00;;
40649;SDS011;26342;42.826;23.992;2022-08-05T07:43:57;1.05;;;0.95;;
40649;SDS011;26342;42.826;23.992;2022-08-05T07:46:23;1.75;;;0.90;;
40649;SDS011;26342;42.826;23.992;2022-08-05T07:48:53;1.52;;;1.30;;
40649;SDS011;26342;42.826;23.992;2022-08-05T07:51:20;1.60;;;1.05;;
40649;SDS011;26342;42.826;23.992;2022-08-05T07:53:46;1.27;;;0.98;;
40649;SDS011;26342;42.826;23.992;2022-08-05T07:56:11;1.50;;;1.33;;
40649;SDS011;26342;42.826;23.992;2022-08-05T07:58:38;1.30;;;1.15;;
40649;SDS011;26342;42.826;23.992;2022-08-05T08:01:05;0.98;;;0.80;;
40649;SDS011;26342;42.826;23.992;2022-08-05T08:03:31;1.13;;;1.02;;
40649;SDS011;26342;42.826;23.992;2022-08-05T08:05:57;1.42;;;0.90;;
40649;SDS011;26342;42.826;23.992;2022-08-05T08:08:22;1.50;;;1.13;;
40649;SDS011;26342;42.826;23.992;2022-08-05T08:10:48;1.65;;;1.35;;
40649;SDS011;26342;42.826;23.992;2022-08-05T08:13:13;1.35;;;1.23;;
40649;SDS011;26342;42.826;23.992;2022-08-05T08:15:39;1.00;;;0.90;;
40649;SDS011;26342;42.826;23.992;2022-08-05T08:18:04;1.00;;;0.90;;
40649;SDS011;26342;42.826;23.992;2022-08-05T08:20:30;1.55;;;0.80;;
40649;SDS011;26342;42.826;23.992;2022-08-05T08:22:56;1.00;;;0.90;;
40649;SDS011;26342;42.826;23.992;2022-08-05T08:25:23;1.25;;;0.90;;
40649;SDS011;26342;42.826;23.992;2022-08-05T08:27:49;1.15;;;1.05;;
40649;SDS011;26342;42.826;23.992;2022-08-05T08:30:15;1.02;;;0.93;;
40649;SDS011;26342;42.826;23.992;2022-08-05T08:32:40;1.48;;;1.10;;
40649;SDS011;26342;42.826;23.992;2022-08-05T08:35:06;1.05;;;0.93;;
40649;SDS011;26342;42.826;23.992;2022-08-05T08:37:32;2.95;;;1.15;;
40649;SDS011;26342;42.826;23.992;2022-08-05T08:39:58;1.08;;;0.93;;
40649;SDS011;26342;42.826;23.992;2022-08-05T08:42:24;1.00;;;0.90;;
40649;SDS011;26342;42.826;23.992;2022-08-05T08:44:54;1.23;;;0.88;;
40649;SDS011;26342;42.826;23.992;2022-08-05T08:47:22;1.35;;;0.90;;
40649;SDS011;26342;42.826;23.992;2022-08-05T08:49:50;1.25;;;1.10;;
40649;SDS011;26342;42.826;23.992;2022-08-05T08:52:28;1.08;;;0.85;;
40649;SDS011;26342;42.826;23.992;2022-08-05T08:54:55;1.60;;;1.05;;
40649;SDS011;26342;42.826;23.992;2022-08-05T08:57:21;1.48;;;1.00;;
40649;SDS011;26342;42.826;23.992;2022-08-05T08:59:48;0.95;;;0.85;;
40649;SDS011;26342;42.826;23.992;2022-08-05T09:02:15;1.25;;;0.95;;
40649;SDS011;26342;42.826;23.992;2022-08-05T09:04:43;1.17;;;1.08;;
40649;SDS011;26342;42.826;23.992;2022-08-05T09:07:09;1.20;;;0.95;;
40649;SDS011;26342;42.826;23.992;2022-08-05T09:09:35;1.25;;;1.15;;
40649;SDS011;26342;42.826;23.992;2022-08-05T09:12:01;1.00;;;0.80;;
40649;SDS011;26342;42.826;23.992;2022-08-05T09:14:30;1.30;;;1.00;;
40649;SDS011;26342;42.826;23.992;2022-08-05T09:16:57;0.98;;;0.90;;
40649;SDS011;26342;42.826;23.992;2022-08-05T09:19:23;1.15;;;1.00;;
40649;SDS011;26342;42.826;23.992;2022-08-05T09:21:49;1.40;;;1.00;;
40649;SDS011;26342;42.826;23.992;2022-08-05T09:24:15;1.10;;;1.00;;
40649;SDS011;26342;42.826;23.992;2022-08-05T09:26:40;1.33;;;1.10;;
40649;SDS011;26342;42.826;23.992;2022-08-05T09:29:10;0.98;;;0.85;;
40649;SDS011;26342;42.826;23.992;2022-08-05T09:31:35;1.25;;;1.00;;
40649;SDS011;26342;42.826;23.992;2022-08-05T09:34:03;1.10;;;1.00;;
40649;SDS011;26342;42.826;23.992;2022-08-05T09:36:37;1.13;;;0.98;;
40649;SDS011;26342;42.826;23.992;2022-08-05T09:39:07;1.20;;;0.93;;
40649;SDS011;26342;42.826;23.992;2022-08-05T09:41:34;0.80;;;0.80;;
40649;SDS011;26342;42.826;23.992;2022-08-05T09:44:31;1.17;;;1.08;;
40649;SDS011;26342;42.826;23.992;2022-08-05T09:47:08;1.27;;;1.10;;
40649;SDS011;26342;42.826;23.992;2022-08-05T09:49:46;1.10;;;1.00;;
40649;SDS011;26342;42.826;23.992;2022-08-05T09:54:54;1.42;;;1.15;;
40649;SDS011;26342;42.826;23.992;2022-08-05T09:59:59;1.05;;;0.90;;
40649;SDS011;26342;42.826;23.992;2022-08-05T10:02:29;1.10;;;1.00;;
40649;SDS011;26342;42.826;23.992;2022-08-05T10:05:03;1.30;;;1.00;;
40649;SDS011;26342;42.826;23.992;2022-08-05T10:07:43;1.83;;;1.10;;
40649;SDS011;26342;42.826;23.992;2022-08-05T10:10:12;1.00;;;0.90;;
40649;SDS011;26342;42.826;23.992;2022-08-05T10:12:39;1.58;;;1.20;;
40649;SDS011;26342;42.826;23.992;2022-08-05T10:15:16;1.05;;;0.93;;
40649;SDS011;26342;42.826;23.992;2022-08-05T10:18:34;1.45;;;1.20;;
40649;SDS011;26342;42.826;23.992;2022-08-05T10:20:50;1.20;;;1.00;;
40649;SDS011;26342;42.826;23.992;2022-08-05T10:23:19;1.60;;;1.25;;
40649;SDS011;26342;42.826;23.992;2022-08-05T10:25:47;2.00;;;1.20;;
40649;SDS011;26342;42.826;23.992;2022-08-05T10:28:12;1.15;;;1.00;;
40649;SDS011;26342;42.826;23.992;2022-08-05T10:30:38;1.10;;;0.93;;
40649;SDS011;26342;42.826;23.992;2022-08-05T10:33:05;1.17;;;1.05;;
40649;SDS011;26342;42.826;23.992;2022-08-05T10:35:31;1.80;;;1.10;;
40649;SDS011;26342;42.826;23.992;2022-08-05T10:37:57;1.10;;;1.00;;
40649;SDS011;26342;42.826;23.992;2022-08-05T10:42:53;1.73;;;1.15;;
40649;SDS011;26342;42.826;23.992;2022-08-05T10:45:26;2.33;;;1.38;;
40649;SDS011;26342;42.826;23.992;2022-08-05T10:47:53;1.10;;;0.93;;
40649;SDS011;26342;42.826;23.992;2022-08-05T10:50:18;1.83;;;1.17;;
40649;SDS011;26342;42.826;23.992;2022-08-05T10:52:45;1.52;;;1.00;;
40649;SDS011;26342;42.826;23.992;2022-08-05T10:55:22;1.48;;;1.08;;
40649;SDS011;26342;42.826;23.992;2022-08-05T10:58:04;1.00;;;0.90;;
40649;SDS011;26342;42.826;23.992;2022-08-05T11:00:34;1.23;;;1.00;;
40649;SDS011;26342;42.826;23.992;2022-08-05T11:05:28;1.17;;;1.08;;
40649;SDS011;26342;42.826;23.992;2022-08-05T11:07:55;1.25;;;1.08;;
40649;SDS011;26342;42.826;23.992;2022-08-05T11:10:22;1.80;;;1.15;;
40649;SDS011;26342;42.826;23.992;2022-08-05T11:12:50;1.27;;;1.10;;
40649;SDS011;26342;42.826;23.992;2022-08-05T11:15:20;1.20;;;1.05;;
40649;SDS011;26342;42.826;23.992;2022-08-05T11:17:49;2.05;;;1.42;;
40649;SDS011;26342;42.826;23.992;2022-08-05T11:28:46;0.95;;;0.80;;
40649;SDS011;26342;42.826;23.992;2022-08-05T11:36:10;1.42;;;1.27;;
40649;SDS011;26342;42.826;23.992;2022-08-05T11:41:21;1.08;;;0.98;;
40649;SDS011;26342;42.826;23.992;2022-08-05T11:46:33;1.17;;;0.90;;
40649;SDS011;26342;42.826;23.992;2022-08-05T11:49:01;1.70;;;1.30;;
40649;SDS011;26342;42.826;23.992;2022-08-05T11:51:30;1.52;;;1.10;;
40649;SDS011;26342;42.826;23.992;2022-08-05T11:53:56;0.93;;;0.80;;
40649;SDS011;26342;42.826;23.992;2022-08-05T11:56:22;1.38;;;1.20;;
40649;SDS011;26342;42.826;23.992;2022-08-05T11:58:48;2.53;;;1.42;;
40649;SDS011;26342;42.826;23.992;2022-08-05T12:01:15;1.60;;;1.40;;
40649;SDS011;26342;42.826;23.992;2022-08-05T12:03:47;1.40;;;1.20;;
40649;SDS011;26342;42.826;23.992;2022-08-05T12:06:14;0.70;;;0.70;;
40649;SDS011;26342;42.826;23.992;2022-08-05T12:11:20;2.03;;;1.42;;
40649;SDS011;26342;42.826;23.992;2022-08-05T12:13:56;4.13;;;2.47;;
40649;SDS011;26342;42.826;23.992;2022-08-05T12:16:24;1.05;;;0.90;;
40649;SDS011;26342;42.826;23.992;2022-08-05T12:18:51;1.92;;;1.17;;
40649;SDS011;26342;42.826;23.992;2022-08-05T12:21:18;1.35;;;1.20;;
40649;SDS011;26342;42.826;23.992;2022-08-05T12:23:56;1.10;;;1.00;;
40649;SDS011;26342;42.826;23.992;2022-08-05T12:26:45;1.63;;;1.25;;
40649;SDS011;26342;42.826;23.992;2022-08-05T12:29:17;1.50;;;1.05;;
40649;SDS011;26342;42.826;23.992;2022-08-05T12:32:03;1.25;;;1.02;;
40649;SDS011;26342;42.826;23.992;2022-08-05T12:34:33;2.55;;;2.17;;
40649;SDS011;26342;42.826;23.992;2022-08-05T12:37:02;1.15;;;1.00;;
40649;SDS011;26342;42.826;23.992;2022-08-05T12:39:37;1.45;;;0.98;;
40649;SDS011;26342;42.826;23.992;2022-08-05T12:42:07;1.25;;;1.13;;
40649;SDS011;26342;42.826;23.992;2022-08-05T12:44:37;1.63;;;1.20;;
40649;SDS011;26342;42.826;23.992;2022-08-05T12:47:03;1.95;;;1.40;;
40649;SDS011;26342;42.826;23.992;2022-08-05T12:49:40;1.55;;;1.40;;
40649;SDS011;26342;42.826;23.992;2022-08-05T12:52:15;1.17;;;1.08;;
40649;SDS011;26342;42.826;23.992;2022-08-05T12:54:43;1.50;;;1.17;;
40649;SDS011;26342;42.826;23.992;2022-08-05T12:57:10;1.23;;;1.13;;
40649;SDS011;26342;42.826;23.992;2022-08-05T12:59:47;1.17;;;1.02;;
40649;SDS011;26342;42.826;23.992;2022-08-05T13:02:15;1.40;;;0.90;;
40649;SDS011;26342;42.826;23.992;2022-08-05T13:04:47;1.10;;;1.00;;
40649;SDS011;26342;42.826;23.992;2022-08-05T13:07:15;1.25;;;0.90;;
40649;SDS011;26342;42.826;23.992;2022-08-05T13:09:46;1.58;;;0.85;;
40649;SDS011;26342;42.826;23.992;2022-08-05T13:12:16;1.05;;;0.90;;
40649;SDS011;26342;42.826;23.992;2022-08-05T13:14:44;1.35;;;1.17;;
40649;SDS011;26342;42.826;23.992;2022-08-05T13:19:39;1.00;;;0.90;;
40649;SDS011;26342;42.826;23.992;2022-08-05T13:22:05;1.30;;;1.20;;
40649;SDS011;26342;42.826;23.992;2022-08-05T13:24:30;8.27;;;1.40;;
40649;SDS011;26342;42.826;23.992;2022-08-05T13:26:56;1.45;;;1.20;;
40649;SDS011;26342;42.826;23.992;2022-08-05T13:29:21;1.73;;;1.30;;
40649;SDS011;26342;42.826;23.992;2022-08-05T13:31:47;3.05;;;2.10;;
40649;SDS011;26342;42.826;23.992;2022-08-05T13:34:13;2.28;;;1.00;;
40649;SDS011;26342;42.826;23.992;2022-08-05T13:36:39;1.90;;;1.00;;
40649;SDS011;26342;42.826;23.992;2022-08-05T13:39:06;1.10;;;1.00;;
40649;SDS011;26342;42.826;23.992;2022-08-05T13:41:32;1.65;;;1.30;;
40649;SDS011;26342;42.826;23.992;2022-08-05T13:43:58;2.60;;;1.48;;
40649;SDS011;26342;42.826;23.992;2022-08-05T13:46:24;2.15;;;1.35;;
40649;SDS011;26342;42.826;23.992;2022-08-05T13:48:51;2.17;;;1.58;;
40649;SDS011;26342;42.826;23.992;2022-08-05T13:51:24;2.20;;;1.20;;
40649;SDS011;26342;42.826;23.992;2022-08-05T13:53:54;1.42;;;1.08;;
40649;SDS011;26342;42.826;23.992;2022-08-05T13:56:20;1.13;;;0.93;;
40649;SDS011;26342;42.826;23.992;2022-08-05T13:58:47;1.80;;;1.23;;
40649;SDS011;26342;42.826;23.992;2022-08-05T14:01:12;1.20;;;1.08;;
40649;SDS011;26342;42.826;23.992;2022-08-05T14:03:38;3.70;;;2.97;;
40649;SDS011;26342;42.826;23.992;2022-08-05T14:06:03;1.70;;;1.23;;
40649;SDS011;26342;42.826;23.992;2022-08-05T14:08:28;1.63;;;1.20;;
40649;SDS011;26342;42.826;23.992;2022-08-05T14:10:54;1.35;;;1.15;;
40649;SDS011;26342;42.826;23.992;2022-08-05T14:13:20;2.10;;;1.48;;
40649;SDS011;26342;42.826;23.992;2022-08-05T14:15:45;1.52;;;1.30;;
40649;SDS011;26342;42.826;23.992;2022-08-05T14:18:11;2.30;;;1.52;;
40649;SDS011;26342;42.826;23.992;2022-08-05T14:20:37;2.38;;;1.33;;
40649;SDS011;26342;42.826;23.992;2022-08-05T14:23:02;2.15;;;1.73;;
40649;SDS011;26342;42.826;23.992;2022-08-05T14:25:27;1.95;;;1.50;;
40649;SDS011;26342;42.826;23.992;2022-08-05T14:27:53;3.30;;;1.70;;
40649;SDS011;26342;42.826;23.992;2022-08-05T14:30:18;3.05;;;2.03;;
40649;SDS011;26342;42.826;23.992;2022-08-05T14:32:44;3.20;;;1.77;;
40649;SDS011;26342;42.826;23.992;2022-08-05T14:35:10;1.42;;;1.30;;
40649;SDS011;26342;42.826;23.992;2022-08-05T14:37:38;3.78;;;2.92;;
40649;SDS011;26342;42.826;23.992;2022-08-05T14:40:04;2.20;;;1.80;;
40649;SDS011;26342;42.826;23.992;2022-08-05T14:42:30;1.55;;;1.40;;
40649;SDS011;26342;42.826;23.992;2022-08-05T14:44:56;1.13;;;1.02;;
40649;SDS011;26342;42.826;23.992;2022-08-05T14:47:21;2.47;;;1.23;;
40649;SDS011;26342;42.826;23.992;2022-08-05T14:49:47;1.45;;;1.10;;
40649;SDS011;26342;42.826;23.992;2022-08-05T14:52:13;1.13;;;1.02;;
40649;SDS011;26342;42.826;23.992;2022-08-05T14:54:38;1.50;;;1.10;;
40649;SDS011;26342;42.826;23.992;2022-08-05T14:57:03;1.55;;;1.10;;
40649;SDS011;26342;42.826;23.992;2022-08-05T14:59:29;1.10;;;1.00;;
40649;SDS011;26342;42.826;23.992;2022-08-05T15:01:55;1.50;;;1.20;;
40649;SDS011;26342;42.826;23.992;2022-08-05T15:04:20;1.25;;;1.10;;
40649;SDS011;26342;42.826;23.992;2022-08-05T15:06:46;1.83;;;1.30;;
40649;SDS011;26342;42.826;23.992;2022-08-05T15:09:12;1.48;;;1.10;;
40649;SDS011;26342;42.826;23.992;2022-08-05T15:11:37;0.90;;;0.90;;
40649;SDS011;26342;42.826;23.992;2022-08-05T15:14:03;1.98;;;1.30;;
40649;SDS011;26342;42.826;23.992;2022-08-05T15:16:29;1.38;;;1.17;;
40649;SDS011;26342;42.826;23.992;2022-08-05T15:18:55;1.25;;;1.00;;
40649;SDS011;26342;42.826;23.992;2022-08-05T15:21:20;2.10;;;1.30;;
40649;SDS011;26342;42.826;23.992;2022-08-05T15:23:46;1.27;;;1.17;;
40649;SDS011;26342;42.826;23.992;2022-08-05T15:26:11;1.52;;;1.00;;